Terminal Aerodrome Forecast
Issued by NWS

Home | Current Version | Previous Version | Text Only | Print | Product List | Glossary On
Versions: 1 2 3 4 5 6 7 8 9 10 11 12 13 14 15 16 17 18 19 20 21 22 23 24
000
FTUS41 KRLX 062300
TAFCKB
TAF
KCKB 062322Z 0700/0724 02005KT P6SM VCSH SCT070
     FM070100 02003KT P6SM SCT070
     FM070400 00000KT 4SM BR FEW070
     FM070700 00000KT 1SM BR SCT002
     FM071200 VRB03KT 4SM BR FEW001
     FM071300 11003KT P6SM FEW060=

USA.gov is the U.S. government's official web portal to all federal, state and local government web resources and services.